YQB weather

Quebec Jean Lesage International Airport
Quebec, Quebec, Canada

Public forecast

Using degrees Celsius for public forecast. Weather courtesy of forecast.io.

Current aviation weather report (METAR) for Quebec Jean Lesage International Airport

Retrieved 2019/10/21 04:00 UTC (2 minutes ago):

CYQB 210400Z 05002KT 15SM FEW170 02/01 A3004 RMK AC2 SLP177

Aviation forecast (TAF) for Quebec Jean Lesage International Airport

Retrieved 2019-10-21 00:42 UTC (3 hours ago):

TAF TAF CYQB 202338Z 2100/2124 VRB03KT P6SM SCT180 OVC200 PROB30 2107/2113 1SM BR SCT002 FM211500 23008KT P6SM FEW150 BECMG 2121/2123 VRB03KT RMK NXT FCST BY 210600Z